KCXO/CXO METAR and TAF weather

Enter ICAO airport designator
Station Type Date Time Source
KCXO METAR 2021/04/17 02:53 UTC NOAA

KCXO 170253Z AUTO 35006KT 10SM OVC006 17/16 A2987 RMK AO2 SLP114 P0001 60006 T01720156 51036


Station Type Date Time Source
KCXO Decoded METAR 2021/04/17 02:53 UTC NOAA

LONE STAR EXECUTIVE AIRPORT, TX, United States (KCXO) 30-21N 95-25W 75M
Apr 16, 2021 - 10:53 PM EDT / 2021.04.17 0253 UTC
Wind: from the N (350 degrees) at 7 MPH (6 KT):0
Visibility: 10 mile(s):0
Sky conditions: overcast
Precipitation last hour: 0.01 inches
Temperature: 63.0 F (17.2 C)
Dew Point: 60.1 F (15.6 C)
Relative Humidity: 90%
Pressure (altimeter): 29.87 in. Hg (1011 hPa)
Pressure tendency: 0.11 inches (3.6 hPa) higher than three hours ago
ob: KCXO 170253Z AUTO 35006KT 10SM OVC006 17/16 A2987 RMK AO2 SLP114 P0001 60006 T01720156 51036
cycle: 3

Station Type Date Time Source
KCXO TAF 2021/04/17 03:04 UTC NOAA

TAF
AMD KCXO 170302Z 1703/1724 35006KT P6SM OVC006
FM170600 35013G23KT 6SM BR SCT008 OVC012
FM171500 36012G22KT P6SM OVC018
FM171800 35011G21KT P6SM VCSH OVC025
FM172100 35010KT P6SM VCSH OVC035

Example: see airport list